sensor_id;sensor_type;location;lat;lon;timestamp;pressure;altitude;pressure_sealevel;temperature;humidity
73910;BME280;62245;48.070;7.874;2024-02-21T00:02:03;100196.50;;;7.64;79.81
73910;BME280;62245;48.070;7.874;2024-02-21T00:04:29;100188.88;;;7.61;79.92
73910;BME280;62245;48.070;7.874;2024-02-21T00:06:54;100183.88;;;7.57;79.52
73910;BME280;62245;48.070;7.874;2024-02-21T00:09:19;100185.19;;;7.53;80.14
73910;BME280;62245;48.070;7.874;2024-02-21T00:11:45;100179.72;;;7.55;80.29
73910;BME280;62245;48.070;7.874;2024-02-21T00:14:10;100187.53;;;7.56;79.77
73910;BME280;62245;48.070;7.874;2024-02-21T00:16:35;100181.34;;;7.48;80.12
73910;BME280;62245;48.070;7.874;2024-02-21T00:19:01;100176.03;;;7.48;80.31
73910;BME280;62245;48.070;7.874;2024-02-21T00:21:26;100181.34;;;7.48;80.93
73910;BME280;62245;48.070;7.874;2024-02-21T00:23:51;100178.53;;;7.49;80.78
73910;BME280;62245;48.070;7.874;2024-02-21T00:26:17;100169.25;;;7.53;80.97
73910;BME280;62245;48.070;7.874;2024-02-21T00:28:42;100176.22;;;7.54;80.83
73910;BME280;62245;48.070;7.874;2024-02-21T00:31:07;100179.41;;;7.58;80.69
73910;BME280;62245;48.070;7.874;2024-02-21T00:33:33;100181.22;;;7.57;80.76
73910;BME280;62245;48.070;7.874;2024-02-21T00:35:58;100189.53;;;7.63;80.63
73910;BME280;62245;48.070;7.874;2024-02-21T00:38:23;100173.28;;;7.66;80.81
73910;BME280;62245;48.070;7.874;2024-02-21T00:40:48;100168.63;;;7.60;79.80
73910;BME280;62245;48.070;7.874;2024-02-21T00:43:14;100162.63;;;7.49;80.21
73910;BME280;62245;48.070;7.874;2024-02-21T00:45:39;100173.06;;;7.51;80.55
73910;BME280;62245;48.070;7.874;2024-02-21T00:48:04;100174.91;;;7.50;80.96
73910;BME280;62245;48.070;7.874;2024-02-21T00:50:30;100179.72;;;7.55;80.77
73910;BME280;62245;48.070;7.874;2024-02-21T00:52:55;100178.25;;;7.61;81.03
73910;BME280;62245;48.070;7.874;2024-02-21T00:55:21;100166.44;;;7.63;80.93
73910;BME280;62245;48.070;7.874;2024-02-21T00:57:46;100159.84;;;7.67;80.48
73910;BME280;62245;48.070;7.874;2024-02-21T04:02:21;99897.44;;;7.06;82.82
73910;BME280;62245;48.070;7.874;2024-02-21T04:04:46;99899.44;;;7.12;82.75
73910;BME280;62245;48.070;7.874;2024-02-21T04:07:14;99900.09;;;7.14;82.27
73910;BME280;62245;48.070;7.874;2024-02-21T04:09:39;99893.81;;;7.07;82.35
73910;BME280;62245;48.070;7.874;2024-02-21T04:12:05;99901.25;;;7.11;82.20
73910;BME280;62245;48.070;7.874;2024-02-21T04:14:30;99891.31;;;7.05;82.32
73910;BME280;62245;48.070;7.874;2024-02-21T04:16:56;99886.16;;;7.12;82.81
73910;BME280;62245;48.070;7.874;2024-02-21T04:19:22;99884.50;;;7.11;82.49
73910;BME280;62245;48.070;7.874;2024-02-21T04:21:47;99876.38;;;7.12;82.36
73910;BME280;62245;48.070;7.874;2024-02-21T04:24:13;99877.22;;;7.13;82.43
73910;BME280;62245;48.070;7.874;2024-02-21T04:26:38;99864.94;;;7.12;82.29
73910;BME280;62245;48.070;7.874;2024-02-21T04:29:03;99866.28;;;7.08;81.96
73910;BME280;62245;48.070;7.874;2024-02-21T04:31:29;99851.19;;;7.08;81.95
73910;BME280;62245;48.070;7.874;2024-02-21T04:33:55;99869.09;;;7.06;81.95
73910;BME280;62245;48.070;7.874;2024-02-21T04:36:20;99875.06;;;7.08;82.32
73910;BME280;62245;48.070;7.874;2024-02-21T04:38:45;99876.22;;;7.06;82.49
73910;BME280;62245;48.070;7.874;2024-02-21T04:41:11;99875.91;;;7.09;83.13
73910;BME280;62245;48.070;7.874;2024-02-21T04:43:36;99874.41;;;7.06;83.92
73910;BME280;62245;48.070;7.874;2024-02-21T04:46:01;99880.19;;;7.02;83.39
73910;BME280;62245;48.070;7.874;2024-02-21T04:48:26;99879.19;;;7.03;83.57
73910;BME280;62245;48.070;7.874;2024-02-21T04:50:52;99875.38;;;7.05;83.73
73910;BME280;62245;48.070;7.874;2024-02-21T04:53:17;99869.09;;;7.06;83.54
73910;BME280;62245;48.070;7.874;2024-02-21T04:55:42;99863.94;;;6.97;82.90
73910;BME280;62245;48.070;7.874;2024-02-21T04:58:08;99845.38;;;6.89;82.45
73910;BME280;62245;48.070;7.874;2024-02-21T05:00:33;99847.72;;;6.92;82.72
73910;BME280;62245;48.070;7.874;2024-02-21T05:02:58;99832.13;;;6.89;82.83
73910;BME280;62245;48.070;7.874;2024-02-21T05:05:24;99818.50;;;6.83;82.85
73910;BME280;62245;48.070;7.874;2024-02-21T05:07:49;99811.38;;;6.84;82.76
73910;BME280;62245;48.070;7.874;2024-02-21T05:10:14;99819.19;;;6.77;83.15
73910;BME280;62245;48.070;7.874;2024-02-21T05:12:40;99828.13;;;6.76;83.23
73910;BME280;62245;48.070;7.874;2024-02-21T05:15:05;99836.75;;;6.78;83.32
73910;BME280;62245;48.070;7.874;2024-02-21T05:17:31;99837.28;;;6.66;83.19
73910;BME280;62245;48.070;7.874;2024-02-21T05:19:56;99826.00;;;6.64;83.15
73910;BME280;62245;48.070;7.874;2024-02-21T05:22:21;99830.09;;;6.58;83.85
73910;BME280;62245;48.070;7.874;2024-02-21T05:24:47;99816.69;;;6.52;83.72
73910;BME280;62245;48.070;7.874;2024-02-21T05:27:12;99815.88;;;6.59;83.62
73910;BME280;62245;48.070;7.874;2024-02-21T05:29:37;99818.88;;;6.56;83.62
73910;BME280;62245;48.070;7.874;2024-02-21T05:32:03;99817.53;;;6.52;83.44
73910;BME280;62245;48.070;7.874;2024-02-21T05:34:28;99820.53;;;6.57;83.33
73910;BME280;62245;48.070;7.874;2024-02-21T05:36:54;99826.47;;;6.59;83.58
73910;BME280;62245;48.070;7.874;2024-02-21T05:39:19;99816.22;;;6.56;83.58
73910;BME280;62245;48.070;7.874;2024-02-21T05:41:47;99811.53;;;6.50;83.61
73910;BME280;62245;48.070;7.874;2024-02-21T05:44:12;99809.09;;;6.49;82.87
73910;BME280;62245;48.070;7.874;2024-02-21T05:46:38;99812.88;;;6.46;83.48
73910;BME280;62245;48.070;7.874;2024-02-21T05:49:03;99801.59;;;6.44;83.63
73910;BME280;62245;48.070;7.874;2024-02-21T05:51:32;99807.44;;;6.48;83.58
73910;BME280;62245;48.070;7.874;2024-02-21T05:53:57;99807.06;;;6.51;83.57
73910;BME280;62245;48.070;7.874;2024-02-21T05:56:23;99812.53;;;6.49;83.67
73910;BME280;62245;48.070;7.874;2024-02-21T05:58:48;99808.56;;;6.45;83.73
73910;BME280;62245;48.070;7.874;2024-02-21T06:01:13;99809.41;;;6.46;83.31
73910;BME280;62245;48.070;7.874;2024-02-21T06:03:38;99808.56;;;6.45;83.16
73910;BME280;62245;48.070;7.874;2024-02-21T06:06:04;99805.75;;;6.47;83.42
73910;BME280;62245;48.070;7.874;2024-02-21T06:08:30;99806.91;;;6.44;83.11
73910;BME280;62245;48.070;7.874;2024-02-21T06:10:55;99816.16;;;6.40;83.14
73910;BME280;62245;48.070;7.874;2024-02-21T06:13:21;99818.81;;;6.40;83.33
73910;BME280;62245;48.070;7.874;2024-02-21T06:15:47;99811.22;;;6.37;83.23
73910;BME280;62245;48.070;7.874;2024-02-21T06:18:12;99809.72;;;6.42;83.36
73910;BME280;62245;48.070;7.874;2024-02-21T06:20:38;99797.28;;;6.43;83.51
73910;BME280;62245;48.070;7.874;2024-02-21T06:23:05;99794.50;;;6.44;83.30
73910;BME280;62245;48.070;7.874;2024-02-21T06:25:31;99793.50;;;6.46;83.37
73910;BME280;62245;48.070;7.874;2024-02-21T06:27:56;99794.31;;;6.46;83.37
73910;BME280;62245;48.070;7.874;2024-02-21T06:30:21;99793.34;;;6.47;83.32
73910;BME280;62245;48.070;7.874;2024-02-21T06:32:47;99787.03;;;6.48;83.31
73910;BME280;62245;48.070;7.874;2024-02-21T06:35:12;99775.78;;;6.46;83.36
73910;BME280;62245;48.070;7.874;2024-02-21T06:37:37;99779.41;;;6.45;83.21
73910;BME280;62245;48.070;7.874;2024-02-21T06:40:03;99778.44;;;6.46;83.39
73910;BME280;62245;48.070;7.874;2024-02-21T06:42:29;99776.09;;;6.43;82.63
73910;BME280;62245;48.070;7.874;2024-02-21T06:44:54;99773.44;;;6.43;82.58
73910;BME280;62245;48.070;7.874;2024-02-21T06:47:21;99775.94;;;6.44;82.28
73910;BME280;62245;48.070;7.874;2024-02-21T06:49:50;99782.06;;;6.45;82.74
73910;BME280;62245;48.070;7.874;2024-02-21T06:52:18;99771.13;;;6.40;82.18
73910;BME280;62245;48.070;7.874;2024-02-21T06:54:48;99777.59;;;6.37;82.28
73910;BME280;62245;48.070;7.874;2024-02-21T06:57:13;99768.81;;;6.37;82.12
73910;BME280;62245;48.070;7.874;2024-02-21T06:59:40;99759.19;;;6.36;82.29
73910;BME280;62245;48.070;7.874;2024-02-21T07:02:05;99763.50;;;6.37;82.40
73910;BME280;62245;48.070;7.874;2024-02-21T07:04:30;99756.56;;;6.44;82.21
73910;BME280;62245;48.070;7.874;2024-02-21T07:06:55;99753.75;;;6.46;81.88
73910;BME280;62245;48.070;7.874;2024-02-21T07:09:21;99761.53;;;6.47;81.70
73910;BME280;62245;48.070;7.874;2024-02-21T07:11:46;99756.88;;;6.49;81.67
73910;BME280;62245;48.070;7.874;2024-02-21T07:14:11;99753.22;;;6.50;81.27
73910;BME280;62245;48.070;7.874;2024-02-21T07:16:36;99745.47;;;6.49;81.63
73910;BME280;62245;48.070;7.874;2024-02-21T07:19:02;99757.22;;;6.62;81.47
73910;BME280;62245;48.070;7.874;2024-02-21T07:21:28;99746.28;;;6.65;81.20
73910;BME280;62245;48.070;7.874;2024-02-21T07:23:53;99749.91;;;6.72;81.13
73910;BME280;62245;48.070;7.874;2024-02-21T07:26:18;99748.25;;;6.71;81.32
73910;BME280;62245;48.070;7.874;2024-02-21T07:28:43;99754.84;;;6.83;81.30
73910;BME280;62245;48.070;7.874;2024-02-21T07:31:09;99749.56;;;6.83;81.31
73910;BME280;62245;48.070;7.874;2024-02-21T07:33:34;99752.72;;;6.87;81.64
73910;BME280;62245;48.070;7.874;2024-02-21T07:36:00;99744.75;;;6.87;81.50
73910;BME280;62245;48.070;7.874;2024-02-21T07:38:26;99748.88;;;6.98;81.66
73910;BME280;62245;48.070;7.874;2024-02-21T07:40:51;99749.53;;;7.08;81.91
73910;BME280;62245;48.070;7.874;2024-02-21T07:43:16;99737.25;;;7.07;80.19
73910;BME280;62245;48.070;7.874;2024-02-21T07:45:41;99739.91;;;7.07;80.06
73910;BME280;62245;48.070;7.874;2024-02-21T07:48:07;99742.53;;;7.15;80.06
73910;BME280;62245;48.070;7.874;2024-02-21T07:50:32;99737.53;;;7.20;79.88
73910;BME280;62245;48.070;7.874;2024-02-21T07:52:57;99736.22;;;7.24;80.49
73910;BME280;62245;48.070;7.874;2024-02-21T07:55:23;99744.84;;;7.26;80.25
73910;BME280;62245;48.070;7.874;2024-02-21T07:57:48;99745.81;;;7.33;79.60
73910;BME280;62245;48.070;7.874;2024-02-21T08:00:15;99743.31;;;7.32;79.39
73910;BME280;62245;48.070;7.874;2024-02-21T08:02:45;99742.63;;;7.38;79.38
73910;BME280;62245;48.070;7.874;2024-02-21T08:05:10;99740.75;;;7.46;78.76
73910;BME280;62245;48.070;7.874;2024-02-21T08:07:37;99738.25;;;7.53;78.87
73910;BME280;62245;48.070;7.874;2024-02-21T08:10:03;99745.75;;;7.49;78.78
73910;BME280;62245;48.070;7.874;2024-02-21T08:12:28;99756.16;;;7.59;78.60
73910;BME280;62245;48.070;7.874;2024-02-21T08:14:54;99752.50;;;7.60;78.41
73910;BME280;62245;48.070;7.874;2024-02-21T08:17:19;99744.84;;;7.65;78.08
73910;BME280;62245;48.070;7.874;2024-02-21T08:19:44;99735.34;;;7.71;77.88
73910;BME280;62245;48.070;7.874;2024-02-21T08:22:10;99724.03;;;7.77;77.88
73910;BME280;62245;48.070;7.874;2024-02-21T08:24:35;99725.28;;;7.89;77.14
73910;BME280;62245;48.070;7.874;2024-02-21T08:27:00;99724.59;;;7.95;76.55
73910;BME280;62245;48.070;7.874;2024-02-21T08:29:25;99721.41;;;8.00;76.58
73910;BME280;62245;48.070;7.874;2024-02-21T08:31:51;99733.09;;;8.13;75.98
73910;BME280;62245;48.070;7.874;2024-02-21T08:34:16;99728.69;;;8.28;75.78
73910;BME280;62245;48.070;7.874;2024-02-21T08:36:42;99720.78;;;8.43;75.28
73910;BME280;62245;48.070;7.874;2024-02-21T08:39:08;99707.31;;;8.45;75.54
73910;BME280;62245;48.070;7.874;2024-02-21T08:41:34;99712.47;;;8.61;75.28
73910;BME280;62245;48.070;7.874;2024-02-21T08:44:00;99716.97;;;8.75;74.76
73910;BME280;62245;48.070;7.874;2024-02-21T08:46:26;99711.97;;;8.80;73.74
73910;BME280;62245;48.070;7.874;2024-02-21T08:48:52;99712.31;;;8.92;73.17
73910;BME280;62245;48.070;7.874;2024-02-21T08:51:17;99709.78;;;8.98;73.27
73910;BME280;62245;48.070;7.874;2024-02-21T08:53:46;99705.81;;;9.09;72.39
73910;BME280;62245;48.070;7.874;2024-02-21T08:56:12;99692.31;;;9.11;71.63
73910;BME280;62245;48.070;7.874;2024-02-21T08:58:39;99695.00;;;9.25;72.48
73910;BME280;62245;48.070;7.874;2024-02-21T09:01:04;99687.34;;;9.37;71.85
73910;BME280;62245;48.070;7.874;2024-02-21T09:03:31;99682.75;;;9.45;71.76
73910;BME280;62245;48.070;7.874;2024-02-21T09:05:57;99682.84;;;9.37;70.96
73910;BME280;62245;48.070;7.874;2024-02-21T09:08:22;99677.50;;;9.52;71.57
73910;BME280;62245;48.070;7.874;2024-02-21T09:10:49;99670.75;;;9.71;70.74
73910;BME280;62245;48.070;7.874;2024-02-21T09:13:14;99661.94;;;9.70;70.39
73910;BME280;62245;48.070;7.874;2024-02-21T09:15:39;99663.59;;;9.93;70.41
73910;BME280;62245;48.070;7.874;2024-02-21T09:18:05;99669.63;;;10.01;68.62
73910;BME280;62245;48.070;7.874;2024-02-21T09:20:30;99662.09;;;10.26;68.28
73910;BME280;62245;48.070;7.874;2024-02-21T09:22:56;99662.47;;;10.44;67.68
73910;BME280;62245;48.070;7.874;2024-02-21T09:25:25;99661.53;;;10.58;66.97
73910;BME280;62245;48.070;7.874;2024-02-21T09:27:50;99658.16;;;10.71;66.91
73910;BME280;62245;48.070;7.874;2024-02-21T09:30:17;99660.72;;;10.92;66.84
73910;BME280;62245;48.070;7.874;2024-02-21T09:32:42;99666.41;;;11.17;66.55
73910;BME280;62245;48.070;7.874;2024-02-21T09:35:08;99656.72;;;11.10;65.47
73910;BME280;62245;48.070;7.874;2024-02-21T09:37:33;99666.31;;;11.32;65.14
73910;BME280;62245;48.070;7.874;2024-02-21T09:39:59;99652.34;;;11.43;65.05
73910;BME280;62245;48.070;7.874;2024-02-21T09:42:38;99662.97;;;11.78;65.21
73910;BME280;62245;48.070;7.874;2024-02-21T09:45:09;99650.91;;;12.01;63.33
73910;BME280;62245;48.070;7.874;2024-02-21T09:47:53;99656.84;;;12.03;62.54
73910;BME280;62245;48.070;7.874;2024-02-21T09:50:21;99656.25;;;12.01;61.19
73910;BME280;62245;48.070;7.874;2024-02-21T09:52:48;99649.22;;;11.81;62.17
73910;BME280;62245;48.070;7.874;2024-02-21T09:55:15;99649.66;;;12.04;62.14
73910;BME280;62245;48.070;7.874;2024-02-21T09:57:41;99635.22;;;11.85;61.90
73910;BME280;62245;48.070;7.874;2024-02-21T10:00:09;99634.16;;;11.73;61.42
73910;BME280;62245;48.070;7.874;2024-02-21T10:02:34;99621.38;;;11.68;60.40
73910;BME280;62245;48.070;7.874;2024-02-21T10:05:00;99616.31;;;11.87;61.47
73910;BME280;62245;48.070;7.874;2024-02-21T10:07:25;99604.63;;;12.01;60.50
73910;BME280;62245;48.070;7.874;2024-02-21T10:10:00;99603.78;;;12.07;59.10
73910;BME280;62245;48.070;7.874;2024-02-21T10:12:26;99598.44;;;12.14;59.27
73910;BME280;62245;48.070;7.874;2024-02-21T10:15:03;99591.44;;;12.39;59.69
73910;BME280;62245;48.070;7.874;2024-02-21T10:17:28;99585.84;;;12.47;58.53
73910;BME280;62245;48.070;7.874;2024-02-21T10:19:54;99589.47;;;12.92;58.48
73910;BME280;62245;48.070;7.874;2024-02-21T10:22:19;99583.28;;;12.92;58.01
73910;BME280;62245;48.070;7.874;2024-02-21T10:24:46;99586.63;;;13.38;57.20
73910;BME280;62245;48.070;7.874;2024-02-21T10:27:11;99579.47;;;13.64;55.80
73910;BME280;62245;48.070;7.874;2024-02-21T10:29:37;99576.06;;;13.81;54.38
73910;BME280;62245;48.070;7.874;2024-02-21T10:32:11;99564.84;;;13.91;54.28
73910;BME280;62245;48.070;7.874;2024-02-21T10:34:38;99558.47;;;13.85;54.44
73910;BME280;62245;48.070;7.874;2024-02-21T10:37:09;99548.00;;;14.09;53.70
73910;BME280;62245;48.070;7.874;2024-02-21T10:39:37;99554.44;;;13.45;55.48
73910;BME280;62245;48.070;7.874;2024-02-21T10:42:03;99557.56;;;13.73;55.68
73910;BME280;62245;48.070;7.874;2024-02-21T10:44:30;99553.31;;;14.15;54.99
73910;BME280;62245;48.070;7.874;2024-02-21T10:46:56;99543.00;;;14.12;55.85
73910;BME280;62245;48.070;7.874;2024-02-21T10:49:23;99533.59;;;14.03;55.58
73910;BME280;62245;48.070;7.874;2024-02-21T10:51:55;99518.59;;;13.71;56.19
73910;BME280;62245;48.070;7.874;2024-02-21T10:54:34;99530.41;;;14.13;56.08
73910;BME280;62245;48.070;7.874;2024-02-21T10:57:03;99514.72;;;13.91;53.65
73910;BME280;62245;48.070;7.874;2024-02-21T10:59:30;99520.16;;;14.53;53.32
73910;BME280;62245;48.070;7.874;2024-02-21T11:01:57;99509.31;;;15.26;52.28
73910;BME280;62245;48.070;7.874;2024-02-21T11:04:23;99503.94;;;14.96;51.98
73910;BME280;62245;48.070;7.874;2024-02-21T11:06:49;99501.41;;;15.42;51.94
73910;BME280;62245;48.070;7.874;2024-02-21T11:09:18;99498.81;;;15.66;50.73
73910;BME280;62245;48.070;7.874;2024-02-21T11:11:44;99498.97;;;16.17;50.04
73910;BME280;62245;48.070;7.874;2024-02-21T11:14:20;99494.59;;;16.86;48.91
73910;BME280;62245;48.070;7.874;2024-02-21T11:16:46;99484.50;;;16.82;47.41
73910;BME280;62245;48.070;7.874;2024-02-21T11:19:28;99483.88;;;16.28;46.84
73910;BME280;62245;48.070;7.874;2024-02-21T11:21:55;99482.31;;;15.21;48.44
73910;BME280;62245;48.070;7.874;2024-02-21T11:24:32;99469.31;;;15.18;46.83
73910;BME280;62245;48.070;7.874;2024-02-21T11:27:12;99477.56;;;15.04;46.31
73910;BME280;62245;48.070;7.874;2024-02-21T11:29:45;99454.81;;;14.41;48.21
73910;BME280;62245;48.070;7.874;2024-02-21T11:32:11;99455.94;;;14.51;48.02
73910;BME280;62245;48.070;7.874;2024-02-21T11:34:39;99449.41;;;14.22;47.50
73910;BME280;62245;48.070;7.874;2024-02-21T11:37:14;99444.03;;;13.79;48.29
73910;BME280;62245;48.070;7.874;2024-02-21T11:39:42;99442.75;;;13.64;49.80
73910;BME280;62245;48.070;7.874;2024-02-21T11:42:08;99433.06;;;13.63;50.04
73910;BME280;62245;48.070;7.874;2024-02-21T11:44:35;99433.00;;;13.44;50.72
73910;BME280;62245;48.070;7.874;2024-02-21T11:47:02;99421.13;;;13.34;51.27
73910;BME280;62245;48.070;7.874;2024-02-21T11:49:29;99415.00;;;13.27;52.94
73910;BME280;62245;48.070;7.874;2024-02-21T11:52:01;99422.59;;;12.92;52.74
73910;BME280;62245;48.070;7.874;2024-02-21T11:54:32;99412.66;;;12.99;52.51
73910;BME280;62245;48.070;7.874;2024-02-21T11:56:57;99397.56;;;12.73;52.17
73910;BME280;62245;48.070;7.874;2024-02-21T11:59:22;99394.91;;;12.73;53.67
73910;BME280;62245;48.070;7.874;2024-02-21T12:01:48;99400.38;;;12.53;53.63
73910;BME280;62245;48.070;7.874;2024-02-21T12:04:15;99383.19;;;12.67;54.51
73910;BME280;62245;48.070;7.874;2024-02-21T12:06:43;99387.66;;;12.80;54.84
73910;BME280;62245;48.070;7.874;2024-02-21T12:09:09;99381.13;;;12.69;54.33
73910;BME280;62245;48.070;7.874;2024-02-21T12:11:34;99381.56;;;12.66;55.51
73910;BME280;62245;48.070;7.874;2024-02-21T12:14:01;99382.16;;;12.68;55.20
73910;BME280;62245;48.070;7.874;2024-02-21T12:16:27;99371.84;;;12.72;55.64
73910;BME280;62245;48.070;7.874;2024-02-21T12:18:54;99369.78;;;12.74;56.43
73910;BME280;62245;48.070;7.874;2024-02-21T12:21:24;99363.44;;;12.68;55.81
73910;BME280;62245;48.070;7.874;2024-02-21T12:23:49;99356.59;;;12.72;57.14
73910;BME280;62245;48.070;7.874;2024-02-21T12:26:14;99355.16;;;12.76;57.66
73910;BME280;62245;48.070;7.874;2024-02-21T12:28:39;99349.31;;;12.86;55.90
73910;BME280;62245;48.070;7.874;2024-02-21T12:31:05;99344.44;;;12.76;55.22
73910;BME280;62245;48.070;7.874;2024-02-21T12:33:30;99342.38;;;12.72;53.85
73910;BME280;62245;48.070;7.874;2024-02-21T12:35:56;99337.03;;;12.72;49.50
73910;BME280;62245;48.070;7.874;2024-02-21T12:38:21;99319.66;;;12.81;49.11
73910;BME280;62245;48.070;7.874;2024-02-21T12:40:46;99320.06;;;12.84;49.58
73910;BME280;62245;48.070;7.874;2024-02-21T12:43:12;99313.84;;;12.91;48.82
73910;BME280;62245;48.070;7.874;2024-02-21T12:45:37;99315.28;;;12.93;49.20
73910;BME280;62245;48.070;7.874;2024-02-21T12:48:02;99287.94;;;12.84;48.43
73910;BME280;62245;48.070;7.874;2024-02-21T12:50:29;99306.00;;;12.96;48.10
73910;BME280;62245;48.070;7.874;2024-02-21T12:52:56;99287.28;;;12.89;48.21
73910;BME280;62245;48.070;7.874;2024-02-21T12:55:21;99263.13;;;12.96;46.69
73910;BME280;62245;48.070;7.874;2024-02-21T12:57:46;99265.63;;;12.91;44.48
73910;BME280;62245;48.070;7.874;2024-02-21T13:00:12;99263.84;;;12.84;45.24
73910;BME280;62245;48.070;7.874;2024-02-21T13:02:38;99255.59;;;12.86;45.07
73910;BME280;62245;48.070;7.874;2024-02-21T13:05:03;99248.00;;;12.83;45.23
73910;BME280;62245;48.070;7.874;2024-02-21T13:07:29;99245.75;;;12.80;45.25
73910;BME280;62245;48.070;7.874;2024-02-21T13:09:56;99234.81;;;12.81;45.19
73910;BME280;62245;48.070;7.874;2024-02-21T13:12:21;99241.81;;;12.82;45.01
73910;BME280;62245;48.070;7.874;2024-02-21T13:14:47;99237.94;;;12.78;45.58
73910;BME280;62245;48.070;7.874;2024-02-21T13:17:12;99233.63;;;12.77;45.95
73910;BME280;62245;48.070;7.874;2024-02-21T13:19:37;99221.72;;;12.73;45.21
73910;BME280;62245;48.070;7.874;2024-02-21T13:22:03;99236.94;;;12.73;45.91
73910;BME280;62245;48.070;7.874;2024-02-21T13:24:29;99230.41;;;12.69;45.87
73910;BME280;62245;48.070;7.874;2024-02-21T13:26:55;99241.94;;;12.69;47.72
73910;BME280;62245;48.070;7.874;2024-02-21T13:29:20;99217.22;;;12.67;47.32
73910;BME280;62245;48.070;7.874;2024-02-21T13:31:45;99199.97;;;12.63;46.24
73910;BME280;62245;48.070;7.874;2024-02-21T13:34:11;99200.56;;;12.65;44.91
73910;BME280;62245;48.070;7.874;2024-02-21T13:36:36;99191.66;;;12.71;44.28
73910;BME280;62245;48.070;7.874;2024-02-21T13:39:01;99204.00;;;12.72;45.82
73910;BME280;62245;48.070;7.874;2024-02-21T13:41:27;99188.41;;;12.69;46.63
73910;BME280;62245;48.070;7.874;2024-02-21T13:43:52;99173.78;;;12.65;46.83
73910;BME280;62245;48.070;7.874;2024-02-21T13:46:18;99174.78;;;12.71;47.17
73910;BME280;62245;48.070;7.874;2024-02-21T13:48:43;99173.72;;;12.72;47.56
73910;BME280;62245;48.070;7.874;2024-02-21T13:51:08;99167.13;;;12.74;48.09
73910;BME280;62245;48.070;7.874;2024-02-21T13:53:34;99160.34;;;12.72;47.82
73910;BME280;62245;48.070;7.874;2024-02-21T13:55:59;99153.91;;;12.79;48.02
73910;BME280;62245;48.070;7.874;2024-02-21T13:58:25;99159.56;;;12.90;47.55
73910;BME280;62245;48.070;7.874;2024-02-21T14:00:51;99155.69;;;12.85;48.29
73910;BME280;62245;48.070;7.874;2024-02-21T14:03:17;99141.72;;;12.83;48.42
73910;BME280;62245;48.070;7.874;2024-02-21T14:05:44;99139.63;;;12.85;49.03
73910;BME280;62245;48.070;7.874;2024-02-21T14:08:09;99145.06;;;12.79;49.96
73910;BME280;62245;48.070;7.874;2024-02-21T14:10:34;99138.19;;;12.65;50.97
73910;BME280;62245;48.070;7.874;2024-02-21T14:12:59;99131.66;;;12.61;53.32
73910;BME280;62245;48.070;7.874;2024-02-21T14:15:25;99121.88;;;12.48;51.60
73910;BME280;62245;48.070;7.874;2024-02-21T14:17:50;99110.41;;;12.41;53.05
73910;BME280;62245;48.070;7.874;2024-02-21T14:20:16;99116.19;;;12.38;53.79
73910;BME280;62245;48.070;7.874;2024-02-21T14:22:41;99117.81;;;12.39;54.65
73910;BME280;62245;48.070;7.874;2024-02-21T14:25:07;99111.13;;;12.30;54.82
73910;BME280;62245;48.070;7.874;2024-02-21T14:27:32;99101.16;;;12.37;54.73
73910;BME280;62245;48.070;7.874;2024-02-21T14:29:58;99098.28;;;12.38;55.18
73910;BME280;62245;48.070;7.874;2024-02-21T14:32:23;99092.56;;;12.35;55.51
73910;BME280;62245;48.070;7.874;2024-02-21T14:34:49;99097.47;;;12.38;55.88
73910;BME280;62245;48.070;7.874;2024-02-21T14:37:15;99086.19;;;12.36;56.75
73910;BME280;62245;48.070;7.874;2024-02-21T14:39:41;99081.41;;;12.38;55.93
73910;BME280;62245;48.070;7.874;2024-02-21T14:42:06;99074.81;;;12.40;55.31
73910;BME280;62245;48.070;7.874;2024-02-21T14:44:32;99076.00;;;12.44;55.40
73910;BME280;62245;48.070;7.874;2024-02-21T14:46:57;99067.75;;;12.46;55.98
73910;BME280;62245;48.070;7.874;2024-02-21T14:49:22;99058.69;;;12.47;56.44
73910;BME280;62245;48.070;7.874;2024-02-21T14:51:48;99045.09;;;12.48;56.17
73910;BME280;62245;48.070;7.874;2024-02-21T14:54:13;99044.44;;;12.53;54.46
73910;BME280;62245;48.070;7.874;2024-02-21T14:56:38;99043.91;;;12.63;51.78
73910;BME280;62245;48.070;7.874;2024-02-21T14:59:04;99031.78;;;12.60;52.47
73910;BME280;62245;48.070;7.874;2024-02-21T15:01:30;99037.28;;;12.65;52.76
73910;BME280;62245;48.070;7.874;2024-02-21T15:03:55;99037.28;;;12.65;52.92
73910;BME280;62245;48.070;7.874;2024-02-21T15:06:20;99022.88;;;12.66;51.89
73910;BME280;62245;48.070;7.874;2024-02-21T15:08:46;99022.03;;;12.84;48.21
73910;BME280;62245;48.070;7.874;2024-02-21T15:11:11;99025.53;;;12.84;48.48
73910;BME280;62245;48.070;7.874;2024-02-21T15:13:36;99024.03;;;12.89;46.44
73910;BME280;62245;48.070;7.874;2024-02-21T15:16:02;99015.63;;;13.03;44.07
73910;BME280;62245;48.070;7.874;2024-02-21T15:18:29;99016.59;;;13.09;43.44
73910;BME280;62245;48.070;7.874;2024-02-21T15:20:58;99003.50;;;13.01;43.86
73910;BME280;62245;48.070;7.874;2024-02-21T15:23:23;99005.97;;;13.02;44.64
73910;BME280;62245;48.070;7.874;2024-02-21T15:25:49;99003.56;;;13.12;42.17
73910;BME280;62245;48.070;7.874;2024-02-21T15:28:15;98998.66;;;13.09;42.92
73910;BME280;62245;48.070;7.874;2024-02-21T15:30:40;98989.34;;;13.12;41.42
73910;BME280;62245;48.070;7.874;2024-02-21T15:33:06;98989.66;;;13.22;40.52
73910;BME280;62245;48.070;7.874;2024-02-21T15:35:31;98973.94;;;13.26;39.86
73910;BME280;62245;48.070;7.874;2024-02-21T15:37:57;98972.47;;;13.41;39.50
73910;BME280;62245;48.070;7.874;2024-02-21T15:40:23;98976.63;;;13.26;42.13
73910;BME280;62245;48.070;7.874;2024-02-21T15:42:48;98981.53;;;13.10;43.47
73910;BME280;62245;48.070;7.874;2024-02-21T15:45:14;98974.53;;;13.09;42.84
73910;BME280;62245;48.070;7.874;2024-02-21T15:47:39;98957.38;;;12.99;43.84
73910;BME280;62245;48.070;7.874;2024-02-21T15:50:05;98945.94;;;12.92;44.00
73910;BME280;62245;48.070;7.874;2024-02-21T15:52:31;98941.41;;;12.92;44.05
73910;BME280;62245;48.070;7.874;2024-02-21T15:54:57;98946.38;;;12.89;44.77
73910;BME280;62245;48.070;7.874;2024-02-21T15:57:22;98937.19;;;12.84;44.96
73910;BME280;62245;48.070;7.874;2024-02-21T15:59:48;98942.75;;;12.83;44.95
73910;BME280;62245;48.070;7.874;2024-02-21T16:02:19;98929.25;;;12.78;45.02